createdAt,value
2019-02-23T00:00:12.789Z,9.70
2019-02-23T00:02:42.920Z,9.70
2019-02-23T00:05:13.605Z,9.70
2019-02-23T00:07:44.159Z,9.70
2019-02-23T00:10:15.819Z,9.70
2019-02-23T00:12:46.439Z,9.70
2019-02-23T00:15:17.598Z,9.60
2019-02-23T00:17:47.990Z,9.60
2019-02-23T00:20:18.497Z,9.60
2019-02-23T00:22:48.899Z,9.70
2019-02-23T00:25:20.535Z,9.60
2019-02-23T00:27:51.735Z,9.70
2019-02-23T00:33:06.322Z,9.60
2019-02-23T00:35:36.732Z,9.60
2019-02-23T00:38:09.459Z,9.60
2019-02-23T00:40:40.039Z,9.60
2019-02-23T00:43:18.102Z,9.60
2019-02-23T00:45:48.504Z,9.60
2019-02-23T00:48:19.161Z,9.60
2019-02-23T00:50:50.359Z,9.50
2019-02-23T00:53:20.785Z,9.50
2019-02-23T00:56:10.818Z,9.50
2019-02-23T00:58:42.436Z,9.50
2019-02-23T01:01:12.826Z,9.50
2019-02-23T01:03:43.292Z,9.50
2019-02-23T01:06:14.679Z,9.50
2019-02-23T01:08:46.133Z,9.50
2019-02-23T01:11:16.859Z,9.50
2019-02-23T01:13:48.317Z,9.50
2019-02-23T01:16:20.605Z,9.50
2019-02-23T01:18:50.988Z,9.50
2019-02-23T01:21:21.364Z,9.50
2019-02-23T01:23:52.075Z,9.50
2019-02-23T01:26:25.201Z,9.40
2019-02-23T01:29:15.034Z,9.40
2019-02-23T01:31:45.779Z,9.50
2019-02-23T01:34:16.166Z,9.40
2019-02-23T01:36:46.940Z,9.40
2019-02-23T01:39:18.094Z,9.30
2019-02-23T01:41:48.717Z,9.20
2019-02-23T01:44:19.941Z,9.10
2019-02-23T01:46:50.263Z,9.10
2019-02-23T01:49:20.831Z,9.20
2019-02-23T01:51:51.153Z,9.10
2019-02-23T01:54:21.531Z,9.10
2019-02-23T01:56:52.314Z,9.10
2019-02-23T01:59:22.943Z,9.10
2019-02-23T02:01:54.279Z,9.00
2019-02-23T02:04:25.856Z,8.90
2019-02-23T02:06:57.294Z,9.00
2019-02-23T02:09:28.633Z,8.90
2019-02-23T02:11:59.836Z,8.80
2019-02-23T02:14:33.293Z,8.80
2019-02-23T02:17:03.688Z,8.90
2019-02-23T02:19:34.355Z,8.90
2019-02-23T02:22:04.985Z,8.90
2019-02-23T02:24:35.608Z,8.90
2019-02-23T02:27:06.948Z,8.90
2019-02-23T02:29:38.316Z,8.90
2019-02-23T02:32:09.562Z,8.90
2019-02-23T02:34:41.006Z,8.80
2019-02-23T02:37:12.101Z,8.90
2019-02-23T02:40:03.949Z,8.90
2019-02-23T02:42:34.280Z,8.80
2019-02-23T02:45:04.674Z,8.90
2019-02-23T02:47:35.101Z,8.80
2019-02-23T02:50:25.158Z,8.70
2019-02-23T02:52:55.614Z,8.80
2019-02-23T02:55:28.054Z,8.80
2019-02-23T02:57:58.384Z,8.80
2019-02-23T03:00:29.548Z,8.70
2019-02-23T03:02:59.930Z,8.60
2019-02-23T03:05:30.453Z,8.60
2019-02-23T03:08:00.836Z,8.60
2019-02-23T03:10:34.508Z,8.60
2019-02-23T03:13:05.728Z,8.60
2019-02-23T03:15:36.111Z,8.60
2019-02-23T03:18:06.482Z,8.60
2019-02-23T03:20:37.087Z,8.60
2019-02-23T03:23:29.988Z,8.60
2019-02-23T03:26:01.138Z,8.60
2019-02-23T03:28:32.471Z,8.60
2019-02-23T03:31:03.617Z,8.50
2019-02-23T03:33:33.958Z,8.50
2019-02-23T03:36:05.398Z,8.50
2019-02-23T03:38:36.792Z,8.50
2019-02-23T03:41:07.192Z,8.50
2019-02-23T03:43:37.817Z,8.50
2019-02-23T03:46:09.043Z,8.50
2019-02-23T03:48:39.432Z,8.50
2019-02-23T03:51:29.432Z,8.50
2019-02-23T03:54:00.727Z,8.40
2019-02-23T03:56:31.114Z,8.40
2019-02-23T03:59:01.534Z,8.40
2019-02-23T04:01:31.913Z,8.40
2019-02-23T04:04:02.533Z,8.40
2019-02-23T04:06:33.746Z,8.30
2019-02-23T04:09:04.381Z,8.30
2019-02-23T04:11:35.050Z,8.30
2019-02-23T04:14:05.432Z,8.20
2019-02-23T04:16:35.884Z,8.20
2019-02-23T04:19:07.047Z,8.20
2019-02-23T04:21:37.438Z,8.20
2019-02-23T04:24:08.147Z,8.10
2019-02-23T04:26:42.638Z,8.20
2019-02-23T04:29:13.266Z,8.10
2019-02-23T04:31:44.715Z,8.00
2019-02-23T04:34:16.165Z,8.00
2019-02-23T04:36:47.327Z,8.10
2019-02-23T04:39:18.744Z,8.10
2019-02-23T04:41:49.965Z,8.00
2019-02-23T04:44:20.362Z,8.00
2019-02-23T04:46:56.187Z,8.00
2019-02-23T04:52:09.987Z,8.00
2019-02-23T04:54:47.864Z,8.00
2019-02-23T04:57:18.315Z,8.10
2019-02-23T05:00:11.609Z,8.00
2019-02-23T05:02:42.076Z,8.00
2019-02-23T05:05:12.920Z,7.90
2019-02-23T05:07:43.534Z,8.00
2019-02-23T05:10:14.633Z,7.90
2019-02-23T05:12:45.214Z,7.90
2019-02-23T05:15:15.593Z,7.80
2019-02-23T05:17:45.968Z,7.90
2019-02-23T05:20:16.304Z,7.80
2019-02-23T05:22:46.756Z,7.80
2019-02-23T05:25:23.698Z,7.80
2019-02-23T05:27:54.844Z,7.90
2019-02-23T05:30:25.170Z,7.80
2019-02-23T05:32:55.497Z,7.90
2019-02-23T05:35:26.700Z,7.80
2019-02-23T05:37:57.080Z,7.80
2019-02-23T05:40:27.690Z,7.80
2019-02-23T05:43:01.303Z,7.70
2019-02-23T05:45:29.989Z,7.70
2019-02-23T05:48:00.387Z,7.70
2019-02-23T05:50:30.807Z,7.70
2019-02-23T05:53:01.133Z,7.80
2019-02-23T05:55:31.701Z,7.70
2019-02-23T05:58:02.221Z,7.70
2019-02-23T06:00:33.433Z,7.60
2019-02-23T06:03:03.762Z,7.60
2019-02-23T06:05:34.141Z,7.50
2019-02-23T06:08:04.855Z,7.60
2019-02-23T06:10:35.267Z,7.50
2019-02-23T06:13:06.337Z,7.50
2019-02-23T06:15:36.740Z,7.60
2019-02-23T06:18:07.377Z,7.50
2019-02-23T06:20:38.536Z,7.40
2019-02-23T06:23:09.153Z,7.40
2019-02-23T06:25:41.275Z,7.50
2019-02-23T06:28:11.868Z,7.40
2019-02-23T06:30:42.274Z,7.30
2019-02-23T06:33:13.735Z,7.40
2019-02-23T06:35:45.194Z,7.30
2019-02-23T06:38:15.591Z,7.30
2019-02-23T06:40:46.765Z,7.30
2019-02-23T06:43:17.091Z,7.40
2019-02-23T06:45:47.469Z,7.40
2019-02-23T06:48:19.885Z,7.30
2019-02-23T06:50:48.299Z,7.20
2019-02-23T06:53:20.673Z,7.20
2019-02-23T06:55:55.402Z,7.20
2019-02-23T06:58:29.899Z,7.20
2019-02-23T07:01:00.284Z,7.20
2019-02-23T07:03:30.734Z,7.20
2019-02-23T07:06:01.478Z,7.20
2019-02-23T07:08:32.635Z,7.20
2019-02-23T07:11:03.116Z,7.20
2019-02-23T07:13:33.516Z,7.20
2019-02-23T07:16:03.899Z,7.20
2019-02-23T07:18:35.140Z,7.10
2019-02-23T07:21:05.778Z,7.10
2019-02-23T07:23:37.948Z,7.10
2019-02-23T07:26:10.342Z,7.20
2019-02-23T07:28:39.835Z,7.20
2019-02-23T07:31:10.229Z,7.20
2019-02-23T07:33:40.676Z,7.10
2019-02-23T07:36:11.832Z,7.10
2019-02-23T07:38:42.464Z,7.10
2019-02-23T07:41:12.914Z,7.10
2019-02-23T07:43:43.308Z,7.10
2019-02-23T07:46:14.393Z,7.20
2019-02-23T07:48:46.865Z,7.10
2019-02-23T07:51:18.495Z,7.30
2019-02-23T07:53:48.875Z,7.20
2019-02-23T07:56:19.561Z,7.20
2019-02-23T07:58:49.944Z,7.20
2019-02-23T08:01:20.338Z,7.20
2019-02-23T08:03:50.742Z,7.30
2019-02-23T08:06:21.473Z,7.40
2019-02-23T08:08:51.849Z,7.40
2019-02-23T08:11:22.224Z,7.40
2019-02-23T08:13:52.727Z,7.40
2019-02-23T08:16:23.291Z,7.40
2019-02-23T08:18:55.961Z,7.40
2019-02-23T08:21:26.289Z,7.40
2019-02-23T08:23:56.676Z,7.40
2019-02-23T08:26:27.439Z,7.30
2019-02-23T08:28:58.796Z,7.40
2019-02-23T08:31:29.134Z,7.40
2019-02-23T08:36:42.110Z,7.60
2019-02-23T08:39:12.792Z,7.50
2019-02-23T08:41:43.433Z,7.60
2019-02-23T08:44:14.569Z,7.60
2019-02-23T08:46:44.957Z,7.50
2019-02-23T08:49:15.624Z,7.70
2019-02-23T08:51:46.782Z,7.80
2019-02-23T08:54:17.168Z,7.80
2019-02-23T08:56:48.042Z,7.80
2019-02-23T08:59:19.139Z,8.00
2019-02-23T09:01:49.529Z,7.90
2019-02-23T09:04:19.916Z,7.90
2019-02-23T09:06:50.421Z,8.00
2019-02-23T09:09:21.093Z,8.00
2019-02-23T09:11:52.543Z,8.20
2019-02-23T09:14:23.994Z,8.20
2019-02-23T09:16:58.210Z,8.20
2019-02-23T09:19:29.587Z,8.20
2019-02-23T09:21:59.965Z,8.20
2019-02-23T09:24:30.621Z,8.30
2019-02-23T09:27:02.393Z,8.40
2019-02-23T09:29:33.469Z,8.50
2019-02-23T09:32:06.088Z,8.50
2019-02-23T09:34:37.548Z,8.50
2019-02-23T09:37:08.902Z,8.60
2019-02-23T09:39:39.989Z,8.60
2019-02-23T09:42:14.590Z,8.60
2019-02-23T09:44:44.980Z,8.70
2019-02-23T09:47:15.629Z,8.70
2019-02-23T09:49:46.879Z,8.80
2019-02-23T09:52:18.138Z,8.80
2019-02-23T09:54:48.529Z,8.80
2019-02-23T09:57:19.177Z,8.80
2019-02-23T09:59:50.389Z,8.90
2019-02-23T10:02:21.069Z,8.90
2019-02-23T10:04:51.693Z,9.00
2019-02-23T10:07:23.147Z,9.20
2019-02-23T10:09:54.236Z,9.20
2019-02-23T10:12:45.076Z,9.10
2019-02-23T10:15:15.458Z,9.20
2019-02-23T10:17:47.915Z,9.20
2019-02-23T10:20:18.528Z,9.30
2019-02-23T10:22:49.887Z,9.40
2019-02-23T10:25:20.259Z,9.40
2019-02-23T10:27:50.645Z,9.50
2019-02-23T10:30:21.023Z,9.50
2019-02-23T10:32:51.468Z,9.60
2019-02-23T10:35:21.852Z,9.60
2019-02-23T10:37:56.649Z,9.60
2019-02-23T10:40:27.278Z,9.80
2019-02-23T10:42:57.905Z,9.80
2019-02-23T10:45:28.748Z,9.90
2019-02-23T10:47:59.141Z,9.90
2019-02-23T10:50:29.519Z,10.00
2019-02-23T10:53:00.229Z,10.10
2019-02-23T10:55:31.329Z,10.10
2019-02-23T10:58:01.663Z,10.10
2019-02-23T11:00:32.326Z,10.10
2019-02-23T11:03:04.505Z,10.30
2019-02-23T11:05:35.656Z,10.30
2019-02-23T11:08:06.089Z,10.20
2019-02-23T11:10:36.415Z,10.30
2019-02-23T11:13:06.806Z,10.30
2019-02-23T11:15:37.460Z,10.40
2019-02-23T11:18:08.810Z,10.40
2019-02-23T11:20:40.263Z,10.40
2019-02-23T11:23:11.660Z,10.40
2019-02-23T11:26:01.403Z,10.40
2019-02-23T11:28:31.789Z,10.60
2019-02-23T11:31:02.118Z,10.60
2019-02-23T11:33:32.559Z,10.70
2019-02-23T11:36:03.653Z,10.80
2019-02-23T11:38:41.587Z,10.70
2019-02-23T11:41:12.253Z,10.80
2019-02-23T11:43:43.699Z,10.90
2019-02-23T11:46:15.045Z,10.90
2019-02-23T11:48:46.207Z,10.90
2019-02-23T11:51:16.598Z,10.80
2019-02-23T11:53:54.662Z,10.80
2019-02-23T11:56:18.700Z,10.90
2019-02-23T11:58:49.843Z,10.90
2019-02-23T12:01:21.299Z,11.00
2019-02-23T12:03:51.927Z,11.00
2019-02-23T12:06:22.313Z,11.00
2019-02-23T12:08:52.698Z,11.10
2019-02-23T12:11:23.117Z,11.10
2019-02-23T12:16:35.432Z,11.30
2019-02-23T12:19:06.886Z,11.20
2019-02-23T12:21:37.981Z,11.30
2019-02-23T12:24:10.706Z,11.30
2019-02-23T12:26:41.860Z,11.40
2019-02-23T12:29:12.941Z,11.40
2019-02-23T12:32:02.993Z,11.40
2019-02-23T12:34:33.389Z,11.40
2019-02-23T12:37:04.044Z,11.40
2019-02-23T12:39:35.219Z,11.60
2019-02-23T12:42:05.823Z,11.60
2019-02-23T12:44:37.273Z,11.70
2019-02-23T12:47:08.431Z,11.70
2019-02-23T12:49:38.809Z,11.70
2019-02-23T12:52:09.196Z,11.70
2019-02-23T12:54:39.767Z,11.80
2019-02-23T12:57:10.231Z,11.90
2019-02-23T12:59:41.392Z,11.90
2019-02-23T13:02:12.038Z,11.90
2019-02-23T13:04:44.647Z,12.00
2019-02-23T13:07:15.227Z,12.00
2019-02-23T13:09:45.595Z,12.00
2019-02-23T13:12:25.932Z,12.10
2019-02-23T13:15:06.432Z,12.10
2019-02-23T13:17:47.731Z,12.30
2019-02-23T13:20:37.568Z,12.30
2019-02-23T13:23:44.779Z,12.20
2019-02-23T13:26:28.101Z,12.40
2019-02-23T13:29:18.574Z,12.30
2019-02-23T13:32:03.460Z,12.30
2019-02-23T13:35:13.546Z,12.40
2019-02-23T13:37:52.002Z,12.30
2019-02-23T13:40:31.183Z,12.40
2019-02-23T13:43:15.426Z,12.40
2019-02-23T13:46:09.780Z,12.40
2019-02-23T13:49:06.781Z,12.50
2019-02-23T13:51:39.762Z,12.50
2019-02-23T13:54:26.773Z,12.60
2019-02-23T13:57:19.492Z,12.60
2019-02-23T14:00:32.088Z,12.60
2019-02-23T14:03:14.036Z,12.60
2019-02-23T14:06:22.946Z,12.60
2019-02-23T14:12:40.102Z,12.60
2019-02-23T14:15:42.060Z,12.60
2019-02-23T14:18:31.483Z,12.80
2019-02-23T14:21:32.041Z,12.60
2019-02-23T14:24:24.886Z,12.60
2019-02-23T14:27:39.819Z,12.60
2019-02-23T14:30:55.237Z,12.70
2019-02-23T14:33:52.125Z,12.90
2019-02-23T14:36:25.429Z,12.90
2019-02-23T14:39:47.054Z,12.90
2019-02-23T14:42:24.389Z,12.90
2019-02-23T14:47:50.106Z,12.80
2019-02-23T14:50:38.889Z,12.50
2019-02-23T14:53:30.407Z,12.40
2019-02-23T14:56:21.331Z,12.40
2019-02-23T14:58:57.747Z,12.40
2019-02-23T15:01:44.442Z,12.30
2019-02-23T15:04:56.342Z,12.40
2019-02-23T15:07:58.199Z,12.70
2019-02-23T15:10:52.588Z,12.50
2019-02-23T15:13:32.684Z,12.70
2019-02-23T15:16:28.852Z,12.60
2019-02-23T15:19:22.092Z,12.60
2019-02-23T15:22:01.890Z,12.60
2019-02-23T15:24:49.523Z,12.60
2019-02-23T15:27:47.615Z,12.40
2019-02-23T15:30:31.947Z,12.40
2019-02-23T15:33:12.768Z,12.30
2019-02-23T15:36:07.114Z,12.30
2019-02-23T15:42:11.718Z,12.20
2019-02-23T15:45:00.162Z,12.30
2019-02-23T15:47:44.540Z,12.50
2019-02-23T15:50:14.904Z,12.50
2019-02-23T15:52:47.540Z,12.50
2019-02-23T15:55:25.943Z,12.40
2019-02-23T15:58:08.438Z,12.30
2019-02-23T16:00:38.824Z,12.40
2019-02-23T16:03:28.866Z,12.20
2019-02-23T16:05:59.505Z,12.20
2019-02-23T16:08:30.854Z,12.20
2019-02-23T16:11:01.182Z,12.20
2019-02-23T16:13:31.804Z,12.20
2019-02-23T16:16:03.259Z,12.30
2019-02-23T16:18:34.408Z,12.30
2019-02-23T16:21:06.058Z,12.20
2019-02-23T16:23:37.517Z,12.30
2019-02-23T16:26:07.849Z,12.30
2019-02-23T16:28:39.298Z,12.20
2019-02-23T16:31:09.619Z,12.20
2019-02-23T16:33:39.950Z,12.10
2019-02-23T16:36:10.449Z,12.20
2019-02-23T16:38:40.837Z,12.20
2019-02-23T16:41:32.694Z,12.10
2019-02-23T16:44:03.158Z,12.10
2019-02-23T16:46:33.532Z,12.10
2019-02-23T16:49:04.211Z,12.10
2019-02-23T16:51:35.559Z,12.00
2019-02-23T16:54:07.835Z,12.00
2019-02-23T16:56:38.218Z,12.00
2019-02-23T16:59:10.065Z,11.90
2019-02-23T17:01:40.328Z,12.00
2019-02-23T17:04:11.417Z,12.00
2019-02-23T17:06:43.850Z,12.00
2019-02-23T17:09:15.381Z,11.90
2019-02-23T17:11:45.709Z,11.90
2019-02-23T17:14:16.148Z,11.90
2019-02-23T17:16:46.534Z,11.90
2019-02-23T17:19:17.037Z,11.80
2019-02-23T17:21:48.387Z,11.80
2019-02-23T17:24:18.712Z,11.70
2019-02-23T17:26:49.085Z,11.70
2019-02-23T17:29:19.416Z,11.70
2019-02-23T17:31:50.833Z,11.60
2019-02-23T17:34:24.274Z,11.70
2019-02-23T17:36:55.439Z,11.70
2019-02-23T17:39:26.530Z,11.70
2019-02-23T17:41:57.987Z,11.70
2019-02-23T17:44:28.383Z,11.60
2019-02-23T17:46:58.985Z,11.60
2019-02-23T17:49:32.797Z,11.50
2019-02-23T17:52:04.154Z,11.40
2019-02-23T17:54:34.479Z,11.40
2019-02-23T17:57:06.879Z,11.30
2019-02-23T17:59:37.487Z,11.30
2019-02-23T18:02:08.052Z,11.30
2019-02-23T18:05:00.311Z,11.20
2019-02-23T18:07:31.234Z,11.10
2019-02-23T18:10:06.791Z,11.10
2019-02-23T18:12:37.362Z,11.10
2019-02-23T18:15:08.716Z,11.00
2019-02-23T18:17:39.346Z,11.00
2019-02-23T18:20:10.435Z,11.00
2019-02-23T18:23:00.438Z,11.00
2019-02-23T18:25:31.115Z,11.00
2019-02-23T18:28:02.560Z,10.90
2019-02-23T18:30:34.016Z,10.90
2019-02-23T18:33:05.359Z,10.90
2019-02-23T18:35:36.707Z,10.80
2019-02-23T18:38:07.992Z,10.80
2019-02-23T18:40:40.361Z,10.80
2019-02-23T18:43:10.966Z,10.80
2019-02-23T18:45:47.398Z,10.70
2019-02-23T18:48:12.443Z,10.70
2019-02-23T18:50:43.168Z,10.60
2019-02-23T18:53:14.323Z,10.50
2019-02-23T18:55:44.757Z,10.50
2019-02-23T18:58:15.378Z,10.50
2019-02-23T19:00:45.756Z,10.40
2019-02-23T19:03:16.378Z,10.50
2019-02-23T19:05:53.107Z,10.50
2019-02-23T19:08:24.234Z,10.30
2019-02-23T19:10:55.902Z,10.30
2019-02-23T19:13:28.875Z,10.30
2019-02-23T19:15:59.307Z,10.30
2019-02-23T19:18:30.674Z,10.30
2019-02-23T19:21:01.302Z,10.30
2019-02-23T19:23:32.750Z,10.20
2019-02-23T19:26:04.208Z,10.20
2019-02-23T19:28:43.041Z,10.20
2019-02-23T19:31:06.129Z,10.20
2019-02-23T19:33:36.750Z,10.30
2019-02-23T19:36:07.151Z,10.20
2019-02-23T19:38:37.557Z,10.20
2019-02-23T19:41:07.939Z,10.10
2019-02-23T19:43:38.535Z,10.00
2019-02-23T19:46:09.153Z,10.00
2019-02-23T19:51:24.761Z,9.90
2019-02-23T19:53:56.108Z,9.80
2019-02-23T19:56:27.599Z,9.80
2019-02-23T19:59:05.298Z,9.80
2019-02-23T20:01:35.765Z,9.80
2019-02-23T20:04:06.082Z,9.80
2019-02-23T20:06:36.535Z,9.90
2019-02-23T20:09:07.626Z,9.80
2019-02-23T20:11:58.132Z,9.80
2019-02-23T20:14:28.518Z,9.80
2019-02-23T20:16:58.898Z,9.80
2019-02-23T20:19:29.577Z,9.70
2019-02-23T20:22:00.135Z,9.80
2019-02-23T20:24:34.853Z,9.90
2019-02-23T20:27:05.306Z,10.00
2019-02-23T20:29:43.260Z,10.00
2019-02-23T20:32:14.619Z,10.00
2019-02-23T20:34:45.007Z,10.00
2019-02-23T20:37:15.333Z,10.10
2019-02-23T20:39:46.300Z,10.10
2019-02-23T20:42:16.763Z,10.10
2019-02-23T20:44:47.336Z,10.00
2019-02-23T20:47:17.993Z,10.00
2019-02-23T20:49:50.255Z,9.90
2019-02-23T20:52:40.157Z,9.90
2019-02-23T20:55:10.776Z,9.90
2019-02-23T20:57:41.929Z,9.90
2019-02-23T21:00:12.443Z,9.90
2019-02-23T21:02:42.842Z,9.90
2019-02-23T21:05:13.219Z,9.80
2019-02-23T21:07:44.365Z,9.80
2019-02-23T21:10:14.981Z,9.80
2019-02-23T21:12:46.375Z,9.80
2019-02-23T21:15:22.091Z,9.80
2019-02-23T21:17:53.222Z,9.80
2019-02-23T21:20:24.583Z,9.80
2019-02-23T21:22:55.741Z,9.70
2019-02-23T21:25:26.171Z,9.70
2019-02-23T21:27:56.776Z,9.70
2019-02-23T21:30:27.934Z,9.70
2019-02-23T21:32:58.369Z,9.70
2019-02-23T21:35:28.692Z,9.70
2019-02-23T21:37:59.083Z,9.70
2019-02-23T21:40:29.453Z,9.50
2019-02-23T21:42:59.832Z,9.60
2019-02-23T21:45:30.485Z,9.50
2019-02-23T21:48:01.686Z,9.60
2019-02-23T21:50:32.984Z,9.50
2019-02-23T21:53:04.198Z,9.50
2019-02-23T21:55:34.577Z,9.50
2019-02-23T21:58:05.766Z,9.40
2019-02-23T22:00:36.127Z,9.40
2019-02-23T22:03:07.125Z,9.40
2019-02-23T22:05:37.418Z,9.40
2019-02-23T22:08:08.850Z,9.40
2019-02-23T22:10:39.224Z,9.40
2019-02-23T22:13:10.575Z,9.40
2019-02-23T22:16:04.291Z,9.40
2019-02-23T22:18:33.197Z,9.30
2019-02-23T22:21:03.587Z,9.30
2019-02-23T22:23:34.044Z,9.30
2019-02-23T22:26:05.226Z,9.30
2019-02-23T22:28:37.593Z,9.30
2019-02-23T22:31:08.195Z,9.30
2019-02-23T22:33:39.418Z,9.30
2019-02-23T22:36:09.751Z,9.20
2019-02-23T22:38:41.320Z,9.20
2019-02-23T22:41:12.516Z,9.20
2019-02-23T22:43:42.837Z,9.20
2019-02-23T22:46:34.441Z,9.20
2019-02-23T22:49:06.916Z,9.10
2019-02-23T22:51:37.290Z,9.10
2019-02-23T22:54:07.658Z,9.20
2019-02-23T22:56:38.042Z,9.10
2019-02-23T22:59:08.427Z,9.10
2019-02-23T23:01:38.806Z,9.10
2019-02-23T23:04:09.133Z,9.10
2019-02-23T23:06:40.285Z,9.00
2019-02-23T23:11:55.404Z,9.00
2019-02-23T23:14:25.720Z,9.00
2019-02-23T23:16:56.113Z,9.00
2019-02-23T23:19:26.634Z,9.00
2019-02-23T23:21:57.137Z,9.00
2019-02-23T23:24:27.739Z,8.90
2019-02-23T23:26:58.310Z,8.90
2019-02-23T23:29:28.762Z,8.80
2019-02-23T23:31:59.217Z,8.80
2019-02-23T23:34:29.540Z,8.90
2019-02-23T23:37:00.934Z,8.80
2019-02-23T23:39:51.445Z,8.70
2019-02-23T23:42:21.832Z,8.70
2019-02-23T23:44:52.213Z,8.70
2019-02-23T23:47:22.658Z,8.70
2019-02-23T23:49:54.007Z,8.70
2019-02-23T23:52:25.199Z,8.70
2019-02-23T23:55:01.737Z,8.60
2019-02-23T23:57:32.088Z,8.60
